sensor_id;sensor_type;location;lat;lon;timestamp;temperature;humidity
85097;SHT30;75436;53.502;10.030;2024-01-15T00:01:55;1.36;90.37
85097;SHT30;75436;53.502;10.030;2024-01-15T00:04:20;1.40;90.01
85097;SHT30;75436;53.502;10.030;2024-01-15T00:06:45;1.49;89.49
85097;SHT30;75436;53.502;10.030;2024-01-15T00:09:11;1.50;89.90
85097;SHT30;75436;53.502;10.030;2024-01-15T00:11:36;1.50;89.73
85097;SHT30;75436;53.502;10.030;2024-01-15T00:14:02;1.54;89.48
85097;SHT30;75436;53.502;10.030;2024-01-15T00:16:28;1.52;89.76
85097;SHT30;75436;53.502;10.030;2024-01-15T00:18:54;1.36;90.76
85097;SHT30;75436;53.502;10.030;2024-01-15T00:21:19;1.19;91.47
85097;SHT30;75436;53.502;10.030;2024-01-15T00:23:45;1.23;91.86
85097;SHT30;75436;53.502;10.030;2024-01-15T00:26:10;1.35;91.62
85097;SHT30;75436;53.502;10.030;2024-01-15T00:28:37;1.32;91.71
85097;SHT30;75436;53.502;10.030;2024-01-15T00:31:04;1.44;91.01
85097;SHT30;75436;53.502;10.030;2024-01-15T00:33:29;1.46;90.96
85097;SHT30;75436;53.502;10.030;2024-01-15T00:35:55;1.49;91.12
85097;SHT30;75436;53.502;10.030;2024-01-15T00:38:20;1.38;91.36
85097;SHT30;75436;53.502;10.030;2024-01-15T00:40:46;1.40;91.70
85097;SHT30;75436;53.502;10.030;2024-01-15T00:43:11;1.31;91.64
85097;SHT30;75436;53.502;10.030;2024-01-15T00:45:37;1.33;91.50
85097;SHT30;75436;53.502;10.030;2024-01-15T00:48:03;1.29;91.79
85097;SHT30;75436;53.502;10.030;2024-01-15T00:50:29;1.32;91.42
85097;SHT30;75436;53.502;10.030;2024-01-15T00:52:54;1.31;91.42
85097;SHT30;75436;53.502;10.030;2024-01-15T00:55:22;1.22;91.88
85097;SHT30;75436;53.502;10.030;2024-01-15T00:57:49;1.36;91.72
85097;SHT30;75436;53.502;10.030;2024-01-15T01:00:15;1.23;91.81
85097;SHT30;75436;53.502;10.030;2024-01-15T01:02:40;1.36;91.30
85097;SHT30;75436;53.502;10.030;2024-01-15T01:05:06;1.43;90.55
85097;SHT30;75436;53.502;10.030;2024-01-15T01:07:31;1.49;90.22
85097;SHT30;75436;53.502;10.030;2024-01-15T01:09:57;1.47;90.22
85097;SHT30;75436;53.502;10.030;2024-01-15T01:12:22;1.53;89.80
85097;SHT30;75436;53.502;10.030;2024-01-15T01:14:48;1.63;89.39
85097;SHT30;75436;53.502;10.030;2024-01-15T01:17:13;1.57;89.33
85097;SHT30;75436;53.502;10.030;2024-01-15T01:19:41;1.59;89.91
85097;SHT30;75436;53.502;10.030;2024-01-15T01:22:07;1.73;89.40
85097;SHT30;75436;53.502;10.030;2024-01-15T01:24:33;1.81;88.93
85097;SHT30;75436;53.502;10.030;2024-01-15T01:26:58;1.88;88.20
85097;SHT30;75436;53.502;10.030;2024-01-15T01:29:24;1.84;88.29
85097;SHT30;75436;53.502;10.030;2024-01-15T01:31:49;1.97;88.18
85097;SHT30;75436;53.502;10.030;2024-01-15T01:34:16;1.90;88.58
85097;SHT30;75436;53.502;10.030;2024-01-15T01:36:44;1.88;88.50
85097;SHT30;75436;53.502;10.030;2024-01-15T01:39:10;1.91;88.29
85097;SHT30;75436;53.502;10.030;2024-01-15T01:41:36;1.84;88.69
85097;SHT30;75436;53.502;10.030;2024-01-15T01:44:02;1.77;88.95
85097;SHT30;75436;53.502;10.030;2024-01-15T01:46:28;1.84;88.99
85097;SHT30;75436;53.502;10.030;2024-01-15T01:48:55;1.71;89.49
85097;SHT30;75436;53.502;10.030;2024-01-15T01:51:25;1.66;89.95
85097;SHT30;75436;53.502;10.030;2024-01-15T01:53:50;1.66;89.85
85097;SHT30;75436;53.502;10.030;2024-01-15T01:56:17;1.57;90.11
85097;SHT30;75436;53.502;10.030;2024-01-15T01:58:44;1.63;89.79
85097;SHT30;75436;53.502;10.030;2024-01-15T02:01:11;1.56;89.97
85097;SHT30;75436;53.502;10.030;2024-01-15T02:03:39;1.54;90.18
85097;SHT30;75436;53.502;10.030;2024-01-15T02:06:06;1.50;90.31
85097;SHT30;75436;53.502;10.030;2024-01-15T02:08:32;1.56;90.28
85097;SHT30;75436;53.502;10.030;2024-01-15T02:10:57;1.63;90.17
85097;SHT30;75436;53.502;10.030;2024-01-15T02:13:23;1.64;90.40
85097;SHT30;75436;53.502;10.030;2024-01-15T02:15:49;1.63;90.55
85097;SHT30;75436;53.502;10.030;2024-01-15T02:18:14;1.64;90.64
85097;SHT30;75436;53.502;10.030;2024-01-15T02:20:39;1.75;90.01
85097;SHT30;75436;53.502;10.030;2024-01-15T02:23:13;1.71;90.21
85097;SHT30;75436;53.502;10.030;2024-01-15T02:25:45;1.71;90.33
85097;SHT30;75436;53.502;10.030;2024-01-15T02:28:17;1.81;90.46
85097;SHT30;75436;53.502;10.030;2024-01-15T02:30:46;1.74;90.33
85097;SHT30;75436;53.502;10.030;2024-01-15T02:33:11;1.68;90.85
85097;SHT30;75436;53.502;10.030;2024-01-15T02:35:37;1.63;90.93
85097;SHT30;75436;53.502;10.030;2024-01-15T02:38:04;1.70;90.94
85097;SHT30;75436;53.502;10.030;2024-01-15T02:40:29;1.84;90.44
85097;SHT30;75436;53.502;10.030;2024-01-15T02:42:58;1.85;90.42
85097;SHT30;75436;53.502;10.030;2024-01-15T02:45:24;1.85;90.51
85097;SHT30;75436;53.502;10.030;2024-01-15T02:47:49;1.98;90.18
85097;SHT30;75436;53.502;10.030;2024-01-15T02:50:15;1.98;90.21
85097;SHT30;75436;53.502;10.030;2024-01-15T02:52:44;1.91;90.48
85097;SHT30;75436;53.502;10.030;2024-01-15T02:55:10;1.94;90.51
85097;SHT30;75436;53.502;10.030;2024-01-15T02:57:35;2.00;90.23
85097;SHT30;75436;53.502;10.030;2024-01-15T03:00:01;1.88;90.76
85097;SHT30;75436;53.502;10.030;2024-01-15T03:02:26;1.88;90.72
85097;SHT30;75436;53.502;10.030;2024-01-15T03:04:51;1.81;90.87
85097;SHT30;75436;53.502;10.030;2024-01-15T03:07:17;1.73;91.24
85097;SHT30;75436;53.502;10.030;2024-01-15T03:09:43;1.68;91.66
85097;SHT30;75436;53.502;10.030;2024-01-15T03:12:09;1.59;91.77
85097;SHT30;75436;53.502;10.030;2024-01-15T03:14:36;1.54;92.06
85097;SHT30;75436;53.502;10.030;2024-01-15T03:17:02;1.54;92.23
85097;SHT30;75436;53.502;10.030;2024-01-15T03:19:27;1.61;92.11
85097;SHT30;75436;53.502;10.030;2024-01-15T03:21:53;1.52;91.76
85097;SHT30;75436;53.502;10.030;2024-01-15T03:24:21;1.46;92.12
85097;SHT30;75436;53.502;10.030;2024-01-15T03:26:47;1.35;92.48
85097;SHT30;75436;53.502;10.030;2024-01-15T03:29:15;1.47;92.01
85097;SHT30;75436;53.502;10.030;2024-01-15T03:31:40;1.50;92.08
85097;SHT30;75436;53.502;10.030;2024-01-15T03:34:06;1.52;92.23
85097;SHT30;75436;53.502;10.030;2024-01-15T03:36:31;1.46;92.50
85097;SHT30;75436;53.502;10.030;2024-01-15T03:38:57;1.50;92.49
85097;SHT30;75436;53.502;10.030;2024-01-15T03:41:22;1.47;92.56
85097;SHT30;75436;53.502;10.030;2024-01-15T03:43:47;1.84;91.20
85097;SHT30;75436;53.502;10.030;2024-01-15T03:46:13;1.66;91.41
85097;SHT30;75436;53.502;10.030;2024-01-15T03:48:38;1.59;92.33
85097;SHT30;75436;53.502;10.030;2024-01-15T03:51:04;1.49;92.81
85097;SHT30;75436;53.502;10.030;2024-01-15T03:53:29;1.43;93.05
85097;SHT30;75436;53.502;10.030;2024-01-15T03:55:55;1.50;93.08
85097;SHT30;75436;53.502;10.030;2024-01-15T03:58:20;1.39;92.88
85097;SHT30;75436;53.502;10.030;2024-01-15T04:00:45;1.42;93.25
85097;SHT30;75436;53.502;10.030;2024-01-15T04:03:11;1.43;93.02
85097;SHT30;75436;53.502;10.030;2024-01-15T04:05:38;1.43;93.21
85097;SHT30;75436;53.502;10.030;2024-01-15T04:08:04;1.44;92.83
85097;SHT30;75436;53.502;10.030;2024-01-15T04:10:29;1.49;92.83
85097;SHT30;75436;53.502;10.030;2024-01-15T04:12:58;1.46;92.57
85097;SHT30;75436;53.502;10.030;2024-01-15T04:15:25;1.42;92.69
85097;SHT30;75436;53.502;10.030;2024-01-15T04:17:53;1.56;92.42
85097;SHT30;75436;53.502;10.030;2024-01-15T04:20:19;1.63;91.95
85097;SHT30;75436;53.502;10.030;2024-01-15T04:22:47;1.67;91.63
85097;SHT30;75436;53.502;10.030;2024-01-15T04:25:13;1.73;91.22
85097;SHT30;75436;53.502;10.030;2024-01-15T04:27:38;1.61;91.41
85097;SHT30;75436;53.502;10.030;2024-01-15T04:30:04;1.66;91.49
85097;SHT30;75436;53.502;10.030;2024-01-15T04:32:30;1.61;91.45
85097;SHT30;75436;53.502;10.030;2024-01-15T04:34:55;1.56;91.31
85097;SHT30;75436;53.502;10.030;2024-01-15T04:37:21;1.49;91.46
85097;SHT30;75436;53.502;10.030;2024-01-15T04:39:46;1.54;91.58
85097;SHT30;75436;53.502;10.030;2024-01-15T04:42:11;1.44;91.67
85097;SHT30;75436;53.502;10.030;2024-01-15T04:44:37;1.50;91.72
85097;SHT30;75436;53.502;10.030;2024-01-15T04:47:03;1.61;90.83
85097;SHT30;75436;53.502;10.030;2024-01-15T04:49:28;1.54;91.13
85097;SHT30;75436;53.502;10.030;2024-01-15T04:51:54;1.60;90.62
85097;SHT30;75436;53.502;10.030;2024-01-15T04:54:20;1.56;90.51
85097;SHT30;75436;53.502;10.030;2024-01-15T04:56:46;1.64;90.22
85097;SHT30;75436;53.502;10.030;2024-01-15T04:59:11;1.57;90.39
85097;SHT30;75436;53.502;10.030;2024-01-15T05:01:36;1.60;90.05
85097;SHT30;75436;53.502;10.030;2024-01-15T05:04:02;1.61;90.02
85097;SHT30;75436;53.502;10.030;2024-01-15T05:06:28;1.53;90.19
85097;SHT30;75436;53.502;10.030;2024-01-15T05:08:53;1.56;90.62
85097;SHT30;75436;53.502;10.030;2024-01-15T05:11:19;1.68;90.36
85097;SHT30;75436;53.502;10.030;2024-01-15T05:13:44;1.50;90.28
85097;SHT30;75436;53.502;10.030;2024-01-15T05:16:09;1.61;89.94
85097;SHT30;75436;53.502;10.030;2024-01-15T05:18:35;1.50;90.33
85097;SHT30;75436;53.502;10.030;2024-01-15T05:21:03;1.42;90.56
85097;SHT30;75436;53.502;10.030;2024-01-15T05:23:28;1.50;90.36
85097;SHT30;75436;53.502;10.030;2024-01-15T05:25:54;1.44;90.49
85097;SHT30;75436;53.502;10.030;2024-01-15T05:28:19;1.43;90.59
85097;SHT30;75436;53.502;10.030;2024-01-15T05:30:45;1.54;90.59
85097;SHT30;75436;53.502;10.030;2024-01-15T05:33:10;1.59;90.74
85097;SHT30;75436;53.502;10.030;2024-01-15T05:35:36;1.77;89.73
85097;SHT30;75436;53.502;10.030;2024-01-15T05:38:01;1.71;89.96
85097;SHT30;75436;53.502;10.030;2024-01-15T05:40:30;1.71;90.22
85097;SHT30;75436;53.502;10.030;2024-01-15T05:42:56;1.68;90.39
85097;SHT30;75436;53.502;10.030;2024-01-15T05:45:21;1.81;90.24
85097;SHT30;75436;53.502;10.030;2024-01-15T05:47:47;1.82;90.05
85097;SHT30;75436;53.502;10.030;2024-01-15T05:50:12;1.77;90.31
85097;SHT30;75436;53.502;10.030;2024-01-15T05:52:39;1.75;90.28
85097;SHT30;75436;53.502;10.030;2024-01-15T05:55:04;1.85;90.00
85097;SHT30;75436;53.502;10.030;2024-01-15T05:57:30;1.88;89.83
85097;SHT30;75436;53.502;10.030;2024-01-15T05:59:56;1.87;89.77
85097;SHT30;75436;53.502;10.030;2024-01-15T06:02:21;1.82;90.22
85097;SHT30;75436;53.502;10.030;2024-01-15T06:04:46;1.91;89.77
85097;SHT30;75436;53.502;10.030;2024-01-15T06:07:12;1.85;90.15
85097;SHT30;75436;53.502;10.030;2024-01-15T06:09:37;1.87;90.23
85097;SHT30;75436;53.502;10.030;2024-01-15T06:12:05;1.91;90.04
85097;SHT30;75436;53.502;10.030;2024-01-15T06:14:30;1.88;89.89
85097;SHT30;75436;53.502;10.030;2024-01-15T06:16:55;1.81;90.20
85097;SHT30;75436;53.502;10.030;2024-01-15T06:19:21;1.81;90.15
85097;SHT30;75436;53.502;10.030;2024-01-15T06:21:46;1.78;90.19
85097;SHT30;75436;53.502;10.030;2024-01-15T06:24:15;1.74;90.27
85097;SHT30;75436;53.502;10.030;2024-01-15T06:26:43;1.71;90.50
85097;SHT30;75436;53.502;10.030;2024-01-15T06:29:08;1.82;90.28
85097;SHT30;75436;53.502;10.030;2024-01-15T06:31:35;1.82;89.99
85097;SHT30;75436;53.502;10.030;2024-01-15T06:34:00;1.75;90.16
85097;SHT30;75436;53.502;10.030;2024-01-15T06:36:26;1.88;89.45
85097;SHT30;75436;53.502;10.030;2024-01-15T06:38:51;1.80;89.58
85097;SHT30;75436;53.502;10.030;2024-01-15T06:41:16;1.77;89.83
85097;SHT30;75436;53.502;10.030;2024-01-15T06:43:45;1.84;89.55
85097;SHT30;75436;53.502;10.030;2024-01-15T06:46:10;1.78;89.65
85097;SHT30;75436;53.502;10.030;2024-01-15T06:48:35;1.71;89.84
85097;SHT30;75436;53.502;10.030;2024-01-15T06:51:01;1.91;89.30
85097;SHT30;75436;53.502;10.030;2024-01-15T06:53:26;1.84;89.18
85097;SHT30;75436;53.502;10.030;2024-01-15T06:55:52;1.84;89.27
85097;SHT30;75436;53.502;10.030;2024-01-15T06:58:17;1.80;89.30
85097;SHT30;75436;53.502;10.030;2024-01-15T07:00:42;1.77;89.67
85097;SHT30;75436;53.502;10.030;2024-01-15T07:03:08;1.67;89.83
85097;SHT30;75436;53.502;10.030;2024-01-15T07:05:33;1.68;89.75
85097;SHT30;75436;53.502;10.030;2024-01-15T07:07:59;1.64;89.76
85097;SHT30;75436;53.502;10.030;2024-01-15T07:10:26;1.59;89.92
85097;SHT30;75436;53.502;10.030;2024-01-15T07:12:51;1.64;89.90
85097;SHT30;75436;53.502;10.030;2024-01-15T07:15:17;1.61;89.44
85097;SHT30;75436;53.502;10.030;2024-01-15T07:17:45;1.63;88.98
85097;SHT30;75436;53.502;10.030;2024-01-15T07:20:11;1.59;89.17
85097;SHT30;75436;53.502;10.030;2024-01-15T07:22:36;1.63;88.98
85097;SHT30;75436;53.502;10.030;2024-01-15T07:25:02;1.68;88.35
85097;SHT30;75436;53.502;10.030;2024-01-15T07:27:30;1.66;88.18
85097;SHT30;75436;53.502;10.030;2024-01-15T07:29:56;1.66;88.40
85097;SHT30;75436;53.502;10.030;2024-01-15T07:32:21;1.67;88.15
85097;SHT30;75436;53.502;10.030;2024-01-15T07:34:47;1.70;87.70
85097;SHT30;75436;53.502;10.030;2024-01-15T07:37:12;1.85;86.81
85097;SHT30;75436;53.502;10.030;2024-01-15T07:39:38;1.87;86.43
85097;SHT30;75436;53.502;10.030;2024-01-15T07:42:03;2.00;85.62
85097;SHT30;75436;53.502;10.030;2024-01-15T07:44:29;1.98;85.68
85097;SHT30;75436;53.502;10.030;2024-01-15T07:46:54;2.14;85.33
85097;SHT30;75436;53.502;10.030;2024-01-15T07:49:20;2.04;85.33
85097;SHT30;75436;53.502;10.030;2024-01-15T07:51:45;2.00;85.75
85097;SHT30;75436;53.502;10.030;2024-01-15T07:54:11;1.94;85.58
85097;SHT30;75436;53.502;10.030;2024-01-15T07:57:00;1.98;86.08
85097;SHT30;75436;53.502;10.030;2024-01-15T07:59:26;2.00;85.78
85097;SHT30;75436;53.502;10.030;2024-01-15T08:01:52;1.85;86.25
85097;SHT30;75436;53.502;10.030;2024-01-15T08:04:19;1.82;86.25
85097;SHT30;75436;53.502;10.030;2024-01-15T08:06:45;1.90;86.14
85097;SHT30;75436;53.502;10.030;2024-01-15T08:09:12;1.87;86.46
85097;SHT30;75436;53.502;10.030;2024-01-15T08:11:41;1.84;86.64
85097;SHT30;75436;53.502;10.030;2024-01-15T08:14:07;1.91;86.54
85097;SHT30;75436;53.502;10.030;2024-01-15T08:16:33;1.84;86.87
85097;SHT30;75436;53.502;10.030;2024-01-15T08:18:59;1.78;87.12
85097;SHT30;75436;53.502;10.030;2024-01-15T08:21:24;1.87;86.97
85097;SHT30;75436;53.502;10.030;2024-01-15T08:23:50;1.82;87.02
85097;SHT30;75436;53.502;10.030;2024-01-15T08:26:15;1.80;87.38
85097;SHT30;75436;53.502;10.030;2024-01-15T08:28:41;1.78;87.39
85097;SHT30;75436;53.502;10.030;2024-01-15T08:31:06;1.82;87.44
85097;SHT30;75436;53.502;10.030;2024-01-15T08:33:31;1.85;87.50
85097;SHT30;75436;53.502;10.030;2024-01-15T08:35:57;1.81;87.46
85097;SHT30;75436;53.502;10.030;2024-01-15T08:38:22;1.81;87.95
85097;SHT30;75436;53.502;10.030;2024-01-15T08:40:49;1.82;87.94
85097;SHT30;75436;53.502;10.030;2024-01-15T08:43:15;1.91;88.04
85097;SHT30;75436;53.502;10.030;2024-01-15T08:45:40;1.85;88.34
85097;SHT30;75436;53.502;10.030;2024-01-15T08:48:06;1.82;88.64
85097;SHT30;75436;53.502;10.030;2024-01-15T08:50:32;1.78;89.13
85097;SHT30;75436;53.502;10.030;2024-01-15T08:53:02;1.84;88.93
85097;SHT30;75436;53.502;10.030;2024-01-15T08:55:28;1.75;89.45
85097;SHT30;75436;53.502;10.030;2024-01-15T08:57:53;1.67;89.89
85097;SHT30;75436;53.502;10.030;2024-01-15T09:00:20;1.82;89.21
85097;SHT30;75436;53.502;10.030;2024-01-15T09:02:46;1.61;89.78
85097;SHT30;75436;53.502;10.030;2024-01-15T09:05:11;1.68;89.90
85097;SHT30;75436;53.502;10.030;2024-01-15T09:07:37;1.70;89.86
85097;SHT30;75436;53.502;10.030;2024-01-15T09:10:02;1.77;89.56
85097;SHT30;75436;53.502;10.030;2024-01-15T09:12:28;1.84;89.46
85097;SHT30;75436;53.502;10.030;2024-01-15T09:14:54;1.80;89.72
85097;SHT30;75436;53.502;10.030;2024-01-15T09:17:21;1.80;89.65
85097;SHT30;75436;53.502;10.030;2024-01-15T09:19:50;1.81;89.92
85097;SHT30;75436;53.502;10.030;2024-01-15T09:22:15;1.81;89.88
85097;SHT30;75436;53.502;10.030;2024-01-15T09:24:47;1.90;89.80
85097;SHT30;75436;53.502;10.030;2024-01-15T09:27:12;1.90;89.57
85097;SHT30;75436;53.502;10.030;2024-01-15T09:29:38;1.87;89.72
85097;SHT30;75436;53.502;10.030;2024-01-15T09:32:06;1.93;89.99
85097;SHT30;75436;53.502;10.030;2024-01-15T09:34:34;2.04;89.31
85097;SHT30;75436;53.502;10.030;2024-01-15T09:37:00;2.04;89.26
85097;SHT30;75436;53.502;10.030;2024-01-15T09:39:27;2.02;89.39
85097;SHT30;75436;53.502;10.030;2024-01-15T09:41:54;1.95;89.83
85097;SHT30;75436;53.502;10.030;2024-01-15T09:44:20;1.97;89.97
85097;SHT30;75436;53.502;10.030;2024-01-15T09:46:47;1.90;90.28
85097;SHT30;75436;53.502;10.030;2024-01-15T09:49:16;1.94;90.04
85097;SHT30;75436;53.502;10.030;2024-01-15T09:51:42;1.93;90.00
85097;SHT30;75436;53.502;10.030;2024-01-15T09:54:08;1.98;90.07
85097;SHT30;75436;53.502;10.030;2024-01-15T09:56:35;2.02;89.90
85097;SHT30;75436;53.502;10.030;2024-01-15T09:59:01;2.10;90.09
85097;SHT30;75436;53.502;10.030;2024-01-15T10:01:28;2.14;89.41
85097;SHT30;75436;53.502;10.030;2024-01-15T10:03:54;2.33;89.19
85097;SHT30;75436;53.502;10.030;2024-01-15T10:06:21;2.69;88.11
85097;SHT30;75436;53.502;10.030;2024-01-15T10:08:51;2.69;87.98
85097;SHT30;75436;53.502;10.030;2024-01-15T10:11:17;2.52;88.23
85097;SHT30;75436;53.502;10.030;2024-01-15T10:13:49;2.53;87.77
85097;SHT30;75436;53.502;10.030;2024-01-15T10:16:19;2.25;88.84
85097;SHT30;75436;53.502;10.030;2024-01-15T10:18:44;1.98;89.43
85097;SHT30;75436;53.502;10.030;2024-01-15T10:21:09;1.73;90.08
85097;SHT30;75436;53.502;10.030;2024-01-15T10:23:35;1.39;90.91
85097;SHT30;75436;53.502;10.030;2024-01-15T10:26:02;1.11;91.98
85097;SHT30;75436;53.502;10.030;2024-01-15T10:28:28;0.96;92.99
85097;SHT30;75436;53.502;10.030;2024-01-15T10:30:57;1.01;93.11
85097;SHT30;75436;53.502;10.030;2024-01-15T10:33:25;1.02;93.25
85097;SHT30;75436;53.502;10.030;2024-01-15T10:35:54;1.22;93.29
85097;SHT30;75436;53.502;10.030;2024-01-15T10:38:21;1.32;92.27
85097;SHT30;75436;53.502;10.030;2024-01-15T10:40:51;1.31;92.63
85097;SHT30;75436;53.502;10.030;2024-01-15T10:43:17;1.39;92.41
85097;SHT30;75436;53.502;10.030;2024-01-15T10:45:47;1.35;92.48
85097;SHT30;75436;53.502;10.030;2024-01-15T10:48:15;1.29;92.61
85097;SHT30;75436;53.502;10.030;2024-01-15T10:50:41;1.39;91.89
85097;SHT30;75436;53.502;10.030;2024-01-15T10:53:08;1.33;91.90
85097;SHT30;75436;53.502;10.030;2024-01-15T10:55:36;1.06;92.64
85097;SHT30;75436;53.502;10.030;2024-01-15T10:58:03;0.81;93.42
85097;SHT30;75436;53.502;10.030;2024-01-15T11:00:30;0.75;93.69
85097;SHT30;75436;53.502;10.030;2024-01-15T11:02:56;0.71;93.94
85097;SHT30;75436;53.502;10.030;2024-01-15T11:05:22;0.74;94.21
85097;SHT30;75436;53.502;10.030;2024-01-15T11:07:49;0.65;94.41
85097;SHT30;75436;53.502;10.030;2024-01-15T11:10:50;0.61;94.54
85097;SHT30;75436;53.502;10.030;2024-01-15T11:16:03;0.58;94.93
85097;SHT30;75436;53.502;10.030;2024-01-15T11:18:40;0.61;94.97
85097;SHT30;75436;53.502;10.030;2024-01-15T11:23:58;0.64;95.12
85097;SHT30;75436;53.502;10.030;2024-01-15T11:26:36;0.72;94.81
85097;SHT30;75436;53.502;10.030;2024-01-15T11:29:08;0.72;94.78
85097;SHT30;75436;53.502;10.030;2024-01-15T11:34:08;0.81;94.19
85097;SHT30;75436;53.502;10.030;2024-01-15T11:41:53;0.71;94.54
85097;SHT30;75436;53.502;10.030;2024-01-15T11:44:19;0.68;94.57
85097;SHT30;75436;53.502;10.030;2024-01-15T11:47:02;0.88;94.36
85097;SHT30;75436;53.502;10.030;2024-01-15T11:52:21;0.77;94.53
85097;SHT30;75436;53.502;10.030;2024-01-15T11:55:22;0.74;94.58
85097;SHT30;75436;53.502;10.030;2024-01-15T11:57:53;0.95;94.16
85097;SHT30;75436;53.502;10.030;2024-01-15T12:00:22;1.03;93.51
85097;SHT30;75436;53.502;10.030;2024-01-15T12:02:49;0.89;93.76
85097;SHT30;75436;53.502;10.030;2024-01-15T12:05:18;0.92;93.70
85097;SHT30;75436;53.502;10.030;2024-01-15T12:07:48;1.06;93.81
85097;SHT30;75436;53.502;10.030;2024-01-15T12:10:20;0.89;93.52
85097;SHT30;75436;53.502;10.030;2024-01-15T12:13:05;1.01;93.69
85097;SHT30;75436;53.502;10.030;2024-01-15T12:15:31;0.88;93.68
85097;SHT30;75436;53.502;10.030;2024-01-15T12:17:58;0.91;93.31
85097;SHT30;75436;53.502;10.030;2024-01-15T12:20:31;0.92;93.83
85097;SHT30;75436;53.502;10.030;2024-01-15T12:22:58;0.87;93.87
85097;SHT30;75436;53.502;10.030;2024-01-15T12:25:25;0.92;93.80
85097;SHT30;75436;53.502;10.030;2024-01-15T12:27:53;0.99;93.69
85097;SHT30;75436;53.502;10.030;2024-01-15T12:30:22;1.01;93.81
85097;SHT30;75436;53.502;10.030;2024-01-15T12:32:47;1.02;93.18
85097;SHT30;75436;53.502;10.030;2024-01-15T12:35:14;0.98;93.60
85097;SHT30;75436;53.502;10.030;2024-01-15T12:37:43;0.95;93.52
85097;SHT30;75436;53.502;10.030;2024-01-15T12:40:10;1.13;93.00
85097;SHT30;75436;53.502;10.030;2024-01-15T12:42:42;1.02;92.86
85097;SHT30;75436;53.502;10.030;2024-01-15T12:45:10;1.09;93.05
85097;SHT30;75436;53.502;10.030;2024-01-15T12:47:37;1.06;92.85
85097;SHT30;75436;53.502;10.030;2024-01-15T12:50:07;1.28;92.68
85097;SHT30;75436;53.502;10.030;2024-01-15T12:52:32;1.16;92.51
85097;SHT30;75436;53.502;10.030;2024-01-15T12:54:58;1.06;92.76
85097;SHT30;75436;53.502;10.030;2024-01-15T12:57:26;0.91;93.45
85097;SHT30;75436;53.502;10.030;2024-01-15T12:59:54;0.96;93.49
85097;SHT30;75436;53.502;10.030;2024-01-15T13:02:19;0.91;93.69
85097;SHT30;75436;53.502;10.030;2024-01-15T13:04:45;0.92;93.75
85097;SHT30;75436;53.502;10.030;2024-01-15T13:07:10;0.85;94.09
85097;SHT30;75436;53.502;10.030;2024-01-15T13:09:36;0.85;94.00
85097;SHT30;75436;53.502;10.030;2024-01-15T13:12:02;0.96;94.04
85097;SHT30;75436;53.502;10.030;2024-01-15T13:14:28;0.91;93.89
85097;SHT30;75436;53.502;10.030;2024-01-15T13:16:54;0.94;93.61
85097;SHT30;75436;53.502;10.030;2024-01-15T13:19:20;0.82;93.85
85097;SHT30;75436;53.502;10.030;2024-01-15T13:21:49;0.81;94.12
85097;SHT30;75436;53.502;10.030;2024-01-15T13:24:20;0.89;94.35
85097;SHT30;75436;53.502;10.030;2024-01-15T13:26:45;0.94;94.07
85097;SHT30;75436;53.502;10.030;2024-01-15T13:29:11;0.94;93.71
85097;SHT30;75436;53.502;10.030;2024-01-15T13:31:36;0.95;93.97
85097;SHT30;75436;53.502;10.030;2024-01-15T13:34:01;0.91;93.98
85097;SHT30;75436;53.502;10.030;2024-01-15T13:36:28;0.95;94.03
85097;SHT30;75436;53.502;10.030;2024-01-15T13:38:54;0.92;94.04
85097;SHT30;75436;53.502;10.030;2024-01-15T13:41:23;0.92;94.10
85097;SHT30;75436;53.502;10.030;2024-01-15T13:43:54;0.94;94.07
85097;SHT30;75436;53.502;10.030;2024-01-15T13:46:24;1.06;93.77
85097;SHT30;75436;53.502;10.030;2024-01-15T13:48:53;1.02;93.73
85097;SHT30;75436;53.502;10.030;2024-01-15T13:51:22;1.05;93.71
85097;SHT30;75436;53.502;10.030;2024-01-15T13:53:50;1.03;93.70
85097;SHT30;75436;53.502;10.030;2024-01-15T13:56:16;1.01;93.89
85097;SHT30;75436;53.502;10.030;2024-01-15T13:58:41;0.98;94.05
85097;SHT30;75436;53.502;10.030;2024-01-15T14:01:08;1.12;93.70
85097;SHT30;75436;53.502;10.030;2024-01-15T14:03:34;0.89;93.64
85097;SHT30;75436;53.502;10.030;2024-01-15T14:06:00;0.94;94.08
85097;SHT30;75436;53.502;10.030;2024-01-15T14:08:28;0.95;93.98
85097;SHT30;75436;53.502;10.030;2024-01-15T14:10:53;0.94;94.07
85097;SHT30;75436;53.502;10.030;2024-01-15T14:13:19;0.88;94.04
85097;SHT30;75436;53.502;10.030;2024-01-15T14:15:48;0.91;94.05
85097;SHT30;75436;53.502;10.030;2024-01-15T14:18:16;0.92;94.17
85097;SHT30;75436;53.502;10.030;2024-01-15T14:20:43;0.99;94.12
85097;SHT30;75436;53.502;10.030;2024-01-15T14:23:09;0.96;93.82
85097;SHT30;75436;53.502;10.030;2024-01-15T14:25:37;1.09;93.73
85097;SHT30;75436;53.502;10.030;2024-01-15T14:28:02;1.11;93.36
85097;SHT30;75436;53.502;10.030;2024-01-15T14:30:28;1.05;93.22
85097;SHT30;75436;53.502;10.030;2024-01-15T14:32:53;0.95;93.51
85097;SHT30;75436;53.502;10.030;2024-01-15T14:35:18;0.98;93.84
85097;SHT30;75436;53.502;10.030;2024-01-15T14:37:44;1.01;93.55
85097;SHT30;75436;53.502;10.030;2024-01-15T14:40:09;0.91;93.47
85097;SHT30;75436;53.502;10.030;2024-01-15T14:42:36;0.91;93.50
85097;SHT30;75436;53.502;10.030;2024-01-15T14:45:02;0.82;93.60
85097;SHT30;75436;53.502;10.030;2024-01-15T14:47:28;0.75;93.62
85097;SHT30;75436;53.502;10.030;2024-01-15T14:49:54;0.84;93.36
85097;SHT30;75436;53.502;10.030;2024-01-15T14:52:20;0.78;93.48
85097;SHT30;75436;53.502;10.030;2024-01-15T14:54:46;0.74;93.35
85097;SHT30;75436;53.502;10.030;2024-01-15T14:57:15;0.70;93.51
85097;SHT30;75436;53.502;10.030;2024-01-15T14:59:41;0.67;93.84
85097;SHT30;75436;53.502;10.030;2024-01-15T15:02:07;0.57;93.99
85097;SHT30;75436;53.502;10.030;2024-01-15T15:04:32;0.51;93.87
85097;SHT30;75436;53.502;10.030;2024-01-15T15:06:58;0.51;93.81
85097;SHT30;75436;53.502;10.030;2024-01-15T15:09:23;0.49;93.59
85097;SHT30;75436;53.502;10.030;2024-01-15T15:11:49;0.64;93.76
85097;SHT30;75436;53.502;10.030;2024-01-15T15:14:14;0.53;93.25
85097;SHT30;75436;53.502;10.030;2024-01-15T15:16:43;0.57;93.36
85097;SHT30;75436;53.502;10.030;2024-01-15T15:19:08;0.50;93.54
85097;SHT30;75436;53.502;10.030;2024-01-15T15:21:34;0.44;93.62
85097;SHT30;75436;53.502;10.030;2024-01-15T15:23:59;0.39;93.74
85097;SHT30;75436;53.502;10.030;2024-01-15T15:26:25;0.34;93.84
85097;SHT30;75436;53.502;10.030;2024-01-15T15:28:54;0.37;93.99
85097;SHT30;75436;53.502;10.030;2024-01-15T15:31:20;0.34;94.18
85097;SHT30;75436;53.502;10.030;2024-01-15T15:33:46;0.30;94.25
85097;SHT30;75436;53.502;10.030;2024-01-15T15:36:11;0.29;94.44
85097;SHT30;75436;53.502;10.030;2024-01-15T15:38:37;0.33;94.22
85097;SHT30;75436;53.502;10.030;2024-01-15T15:41:03;0.37;94.45
85097;SHT30;75436;53.502;10.030;2024-01-15T15:43:31;0.37;94.47